createdAt,value
2023-04-17T00:03:07.328Z,32.33
2023-04-17T00:07:22.972Z,34.05
2023-04-17T00:11:35.465Z,33.30
2023-04-17T00:15:47.828Z,34.95
2023-04-17T00:20:00.218Z,36.28
2023-04-17T00:24:13.444Z,39.20
2023-04-17T00:28:26.452Z,37.15
2023-04-17T00:32:39.002Z,36.70
2023-04-17T00:36:51.395Z,38.38
2023-04-17T00:41:03.878Z,37.47
2023-04-17T00:45:16.822Z,37.47
2023-04-17T00:49:32.629Z,39.08
2023-04-17T00:53:46.246Z,41.25
2023-04-17T00:57:59.397Z,44.83
2023-04-17T01:02:13.399Z,46.53
2023-04-17T01:06:27.369Z,53.30
2023-04-17T01:10:39.845Z,52.15
2023-04-17T01:14:55.328Z,52.50
2023-04-17T01:19:09.554Z,53.97
2023-04-17T01:23:26.286Z,55.65
2023-04-17T01:27:38.875Z,56.17
2023-04-17T01:31:51.617Z,57.25
2023-04-17T01:36:04.228Z,58.10
2023-04-17T01:40:16.761Z,60.80
2023-04-17T01:44:29.978Z,61.20
2023-04-17T01:48:42.473Z,60.45
2023-04-17T01:52:55.004Z,58.17
2023-04-17T01:57:07.368Z,57.13
2023-04-17T02:01:20.208Z,57.58
2023-04-17T02:05:32.720Z,56.70
2023-04-17T02:09:45.212Z,56.67
2023-04-17T02:13:57.637Z,62.38
2023-04-17T02:18:10.345Z,59.45
2023-04-17T02:22:23.015Z,59.35
2023-04-17T02:26:37.338Z,58.38
2023-04-17T02:30:50.950Z,55.92
2023-04-17T02:35:03.447Z,56.03
2023-04-17T02:39:17.495Z,56.13
2023-04-17T02:43:30.559Z,53.33
2023-04-17T02:47:43.160Z,51.92
2023-04-17T02:51:56.105Z,51.55
2023-04-17T02:56:08.641Z,50.40
2023-04-17T03:00:23.166Z,50.92
2023-04-17T03:04:38.994Z,51.30
2023-04-17T03:08:51.878Z,50.53
2023-04-17T03:13:04.861Z,48.38
2023-04-17T03:17:18.668Z,49.60
2023-04-17T03:21:31.706Z,46.75
2023-04-17T03:25:44.593Z,49.60
2023-04-17T03:29:57.586Z,47.35
2023-04-17T03:34:11.761Z,47.50
2023-04-17T03:38:24.671Z,48.50
2023-04-17T03:42:38.149Z,51.42
2023-04-17T03:46:51.011Z,52.90
2023-04-17T03:51:04.347Z,51.13
2023-04-17T03:55:18.425Z,54.35
2023-04-17T03:59:34.084Z,53.38
2023-04-17T04:03:46.817Z,54.75
2023-04-17T04:07:59.564Z,59.92
2023-04-17T04:12:23.219Z,57.08
2023-04-17T04:16:36.277Z,58.33
2023-04-17T04:20:55.107Z,60.67
2023-04-17T04:25:16.396Z,58.60
2023-04-17T04:29:35.532Z,61.35
2023-04-17T04:33:55.453Z,61.70
2023-04-17T04:38:09.970Z,60.05
2023-04-17T04:42:23.732Z,58.50
2023-04-17T04:46:47.397Z,55.20
2023-04-17T04:51:00.820Z,52.72
2023-04-17T04:55:14.804Z,57.05
2023-04-17T04:59:32.691Z,66.40
2023-04-17T05:04:03.802Z,70.57
2023-04-17T05:08:16.874Z,67.55
2023-04-17T05:12:37.437Z,63.88
2023-04-17T05:16:52.936Z,63.08
2023-04-17T05:21:06.008Z,63.92
2023-04-17T05:25:20.044Z,59.85
2023-04-17T05:29:33.367Z,58.47
2023-04-17T05:33:46.147Z,58.72
2023-04-17T05:37:58.737Z,56.10
2023-04-17T05:42:11.226Z,56.92
2023-04-17T05:46:23.648Z,55.47
2023-04-17T05:50:37.745Z,55.40
2023-04-17T05:54:51.484Z,51.60
2023-04-17T05:59:05.934Z,51.47
2023-04-17T06:03:19.895Z,41.38
2023-04-17T06:07:38.730Z,33.63
2023-04-17T06:11:51.745Z,32.60
2023-04-17T06:16:04.654Z,24.15
2023-04-17T06:20:17.208Z,21.98
2023-04-17T06:24:29.719Z,20.65
2023-04-17T06:28:43.038Z,21.65
2023-04-17T06:32:56.058Z,21.00
2023-04-17T06:37:08.600Z,19.88
2023-04-17T06:41:23.781Z,17.67
2023-04-17T06:45:36.416Z,13.55
2023-04-17T06:49:51.671Z,12.77
2023-04-17T06:54:04.109Z,11.25
2023-04-17T06:58:16.515Z,10.50
2023-04-17T07:02:29.154Z,7.85
2023-04-17T07:06:42.213Z,6.72
2023-04-17T07:10:55.288Z,4.80
2023-04-17T07:15:08.841Z,4.50
2023-04-17T07:19:21.244Z,4.88
2023-04-17T07:23:33.658Z,5.25
2023-04-17T07:27:46.405Z,4.00
2023-04-17T07:31:59.114Z,5.78
2023-04-17T07:36:12.288Z,3.88
2023-04-17T07:40:24.996Z,4.10
2023-04-17T07:44:39.275Z,7.82
2023-04-17T07:48:51.701Z,7.53
2023-04-17T07:53:04.155Z,8.50
2023-04-17T07:57:18.341Z,7.82
2023-04-17T08:01:32.217Z,8.32
2023-04-17T08:05:44.672Z,10.07
2023-04-17T08:09:57.255Z,10.10
2023-04-17T08:14:11.847Z,9.48
2023-04-17T08:18:24.275Z,8.27
2023-04-17T08:22:41.304Z,7.70
2023-04-17T08:26:53.765Z,7.32
2023-04-17T08:31:06.497Z,7.47
2023-04-17T08:35:19.273Z,8.02
2023-04-17T08:39:31.772Z,7.25
2023-04-17T08:43:50.317Z,7.47
2023-04-17T08:48:02.785Z,7.82
2023-04-17T08:52:15.261Z,7.68
2023-04-17T08:56:29.962Z,8.10
2023-04-17T09:00:44.217Z,7.57
2023-04-17T09:04:57.078Z,8.68
2023-04-17T09:09:09.808Z,8.55
2023-04-17T09:13:28.011Z,7.90
2023-04-17T09:17:40.446Z,6.60
2023-04-17T09:21:55.018Z,5.53
2023-04-17T09:26:09.964Z,3.40
2023-04-17T09:30:27.202Z,3.30
2023-04-17T09:34:42.643Z,3.40
2023-04-17T09:38:55.162Z,3.50
2023-04-17T09:43:11.877Z,3.03
2023-04-17T09:47:24.466Z,3.38
2023-04-17T09:51:37.485Z,2.85
2023-04-17T09:55:53.522Z,3.10
2023-04-17T10:00:11.178Z,3.30
2023-04-17T10:04:23.849Z,3.30
2023-04-17T10:08:36.542Z,3.22
2023-04-17T10:12:50.883Z,2.88
2023-04-17T10:17:28.976Z,3.03
2023-04-17T10:21:41.742Z,3.03
2023-04-17T10:26:26.074Z,2.65
2023-04-17T10:30:54.841Z,2.60
2023-04-17T10:35:18.277Z,2.25
2023-04-17T10:40:02.069Z,2.25
2023-04-17T10:44:16.739Z,2.35
2023-04-17T10:48:31.310Z,2.28
2023-04-17T10:52:45.943Z,2.47
2023-04-17T10:56:58.702Z,2.30
2023-04-17T11:01:12.370Z,1.60
2023-04-17T11:05:24.986Z,1.83
2023-04-17T11:09:38.617Z,1.73
2023-04-17T11:13:51.159Z,1.30
2023-04-17T11:18:04.433Z,1.67
2023-04-17T11:22:17.397Z,2.00
2023-04-17T11:26:29.868Z,1.60
2023-04-17T11:30:44.898Z,1.65
2023-04-17T11:34:58.208Z,1.40
2023-04-17T11:39:11.180Z,1.75
2023-04-17T11:43:24.917Z,1.50
2023-04-17T11:47:37.482Z,1.30
2023-04-17T11:51:49.913Z,1.35
2023-04-17T11:56:31.703Z,1.42
2023-04-17T12:00:44.247Z,1.10
2023-04-17T12:05:13.906Z,1.00
2023-04-17T12:09:31.642Z,1.20
2023-04-17T12:13:44.256Z,1.52
2023-04-17T12:17:56.753Z,1.27
2023-04-17T12:22:09.183Z,1.08
2023-04-17T12:26:22.268Z,1.00
2023-04-17T12:30:36.356Z,1.55
2023-04-17T12:34:48.822Z,1.42
2023-04-17T12:39:01.781Z,1.10
2023-04-17T12:43:14.341Z,1.00
2023-04-17T12:47:27.636Z,1.10
2023-04-17T12:51:40.179Z,0.80
2023-04-17T12:55:52.813Z,0.80
2023-04-17T13:00:07.463Z,1.30
2023-04-17T13:04:20.315Z,1.20
2023-04-17T13:08:33.159Z,1.20
2023-04-17T13:12:45.671Z,0.68
2023-04-17T13:16:58.205Z,1.20
2023-04-17T13:21:10.789Z,1.00
2023-04-17T13:25:23.238Z,0.70
2023-04-17T13:29:36.143Z,0.90
2023-04-17T13:33:49.478Z,0.80
2023-04-17T13:38:03.339Z,1.05
2023-04-17T13:42:17.151Z,1.70
2023-04-17T13:46:30.203Z,1.52
2023-04-17T13:50:44.260Z,1.30
2023-04-17T13:54:56.699Z,1.30
2023-04-17T13:59:10.636Z,1.80
2023-04-17T14:03:23.298Z,1.70
2023-04-17T14:07:35.898Z,1.95
2023-04-17T14:11:48.333Z,2.00
2023-04-17T14:16:00.724Z,2.45
2023-04-17T14:20:15.404Z,2.20
2023-04-17T14:24:27.910Z,1.90
2023-04-17T14:28:40.473Z,1.98
2023-04-17T14:32:53.799Z,1.40
2023-04-17T14:37:06.353Z,1.38
2023-04-17T14:41:18.778Z,1.30
2023-04-17T14:45:31.189Z,1.30
2023-04-17T14:49:43.584Z,2.17
2023-04-17T14:53:56.021Z,2.13
2023-04-17T14:58:08.743Z,1.88
2023-04-17T15:02:21.381Z,1.65
2023-04-17T15:06:33.903Z,1.92
2023-04-17T15:10:51.243Z,1.98
2023-04-17T15:15:04.489Z,1.73
2023-04-17T15:19:16.961Z,2.00
2023-04-17T15:23:31.689Z,1.70
2023-04-17T15:27:44.005Z,1.60
2023-04-17T15:31:56.587Z,1.10
2023-04-17T15:36:09.086Z,1.40
2023-04-17T15:40:21.733Z,1.30
2023-04-17T15:44:35.488Z,1.33
2023-04-17T15:48:57.664Z,1.30
2023-04-17T15:53:19.704Z,1.40
2023-04-17T15:57:32.037Z,1.50
2023-04-17T16:01:46.914Z,1.85
2023-04-17T16:05:59.540Z,8.30
2023-04-17T16:10:14.867Z,1.90
2023-04-17T16:14:27.984Z,1.40
2023-04-17T16:18:40.851Z,1.98
2023-04-17T16:22:53.312Z,2.50
2023-04-17T16:27:07.128Z,1.70
2023-04-17T16:31:21.608Z,2.10
2023-04-17T16:35:34.188Z,2.33
2023-04-17T16:39:47.552Z,2.10
2023-04-17T16:43:59.919Z,1.90
2023-04-17T16:48:12.784Z,2.40
2023-04-17T16:52:25.544Z,1.92
2023-04-17T16:56:38.068Z,2.15
2023-04-17T17:00:51.472Z,2.13
2023-04-17T17:05:04.693Z,1.58
2023-04-17T17:09:17.412Z,2.17
2023-04-17T17:13:30.125Z,2.20
2023-04-17T17:17:43.398Z,2.30
2023-04-17T17:21:55.771Z,1.75
2023-04-17T17:26:08.636Z,2.20
2023-04-17T17:30:22.665Z,2.38
2023-04-17T17:34:36.370Z,4.25
2023-04-17T17:38:56.080Z,2.85
2023-04-17T17:43:08.662Z,3.35
2023-04-17T17:47:21.090Z,5.38
2023-04-17T17:51:36.127Z,4.70
2023-04-17T17:55:52.637Z,5.22
2023-04-17T18:00:05.514Z,3.60
2023-04-17T18:04:18.153Z,4.25
2023-04-17T18:08:31.206Z,6.03
2023-04-17T18:12:43.928Z,4.50
2023-04-17T18:16:58.522Z,5.60
2023-04-17T18:21:12.160Z,5.43
2023-04-17T18:25:24.773Z,6.45
2023-04-17T18:29:37.253Z,7.32
2023-04-17T18:33:49.671Z,7.00
2023-04-17T18:38:02.136Z,6.75
2023-04-17T18:42:14.569Z,6.45
2023-04-17T18:46:30.662Z,6.53
2023-04-17T18:50:43.334Z,7.18
2023-04-17T18:54:55.780Z,6.78
2023-04-17T18:59:08.231Z,7.30
2023-04-17T19:03:20.657Z,8.20
2023-04-17T19:07:33.071Z,7.28
2023-04-17T19:11:46.067Z,6.40
2023-04-17T19:15:58.587Z,5.85
2023-04-17T19:20:11.197Z,6.13
2023-04-17T19:24:23.646Z,4.88
2023-04-17T19:28:36.727Z,6.32
2023-04-17T19:32:49.287Z,6.43
2023-04-17T19:37:01.724Z,6.15
2023-04-17T19:41:20.141Z,6.88
2023-04-17T19:45:34.513Z,6.97
2023-04-17T19:49:49.173Z,7.65
2023-04-17T19:54:01.567Z,8.85
2023-04-17T19:58:13.982Z,9.02
2023-04-17T20:02:27.153Z,9.20
2023-04-17T20:06:41.241Z,12.32
2023-04-17T20:10:53.807Z,12.98
2023-04-17T20:15:06.599Z,13.63
2023-04-17T20:19:19.093Z,13.75
2023-04-17T20:23:31.493Z,12.27
2023-04-17T20:27:43.865Z,13.15
2023-04-17T20:31:56.303Z,14.20
2023-04-17T20:36:08.802Z,12.02
2023-04-17T20:40:23.170Z,10.32
2023-04-17T20:44:35.636Z,6.65
2023-04-17T20:48:48.870Z,5.35
2023-04-17T20:53:01.130Z,6.43
2023-04-17T20:57:13.547Z,7.85
2023-04-17T21:01:26.046Z,10.30
2023-04-17T21:05:38.534Z,13.18
2023-04-17T21:09:51.225Z,14.15
2023-04-17T21:14:04.106Z,14.00
2023-04-17T21:18:16.494Z,13.23
2023-04-17T21:22:28.863Z,13.00
2023-04-17T21:26:41.269Z,14.02
2023-04-17T21:30:53.987Z,13.15
2023-04-17T21:35:07.299Z,12.85
2023-04-17T21:39:19.832Z,15.05
2023-04-17T21:43:32.278Z,12.13
2023-04-17T21:47:44.689Z,9.35
2023-04-17T21:51:57.630Z,8.43
2023-04-17T21:56:10.126Z,7.95
2023-04-17T22:00:23.139Z,8.60
2023-04-17T22:04:36.009Z,10.27
2023-04-17T22:08:48.604Z,10.60
2023-04-17T22:13:01.108Z,12.13
2023-04-17T22:17:13.613Z,12.25
2023-04-17T22:21:45.009Z,14.13
2023-04-17T22:26:16.293Z,13.52
2023-04-17T22:31:27.553Z,14.82
2023-04-17T22:35:39.944Z,12.43
2023-04-17T22:40:30.444Z,9.20
2023-04-17T22:45:38.684Z,6.70
2023-04-17T22:50:50.105Z,4.50
2023-04-17T22:55:04.347Z,4.20
2023-04-17T22:59:54.201Z,4.00
2023-04-17T23:04:43.801Z,3.95
2023-04-17T23:09:33.205Z,4.43
2023-04-17T23:13:45.730Z,4.05
2023-04-17T23:17:58.141Z,3.03
2023-04-17T23:22:10.716Z,3.60
2023-04-17T23:26:23.342Z,3.00
2023-04-17T23:30:36.088Z,2.85
2023-04-17T23:34:48.757Z,3.10
2023-04-17T23:39:01.719Z,3.28
2023-04-17T23:43:14.437Z,2.95
2023-04-17T23:47:27.058Z,2.50
2023-04-17T23:51:39.755Z,2.40
2023-04-17T23:55:52.480Z,2.30
